createdAt,value
2023-02-08T00:01:51.453Z,84.57
2023-02-08T00:04:19.759Z,84.68
2023-02-08T00:06:50.008Z,84.23
2023-02-08T00:09:18.217Z,83.98
2023-02-08T00:11:46.296Z,84.08
2023-02-08T00:14:14.873Z,84.18
2023-02-08T00:16:43.102Z,83.80
2023-02-08T00:19:11.261Z,84.27
2023-02-08T00:21:39.622Z,84.81
2023-02-08T00:24:11.160Z,85.55
2023-02-08T00:26:39.590Z,85.43
2023-02-08T00:29:07.632Z,84.99
2023-02-08T00:31:40.045Z,84.78
2023-02-08T00:34:08.282Z,85.03
2023-02-08T00:36:36.658Z,86.11
2023-02-08T00:39:04.831Z,85.90
2023-02-08T00:41:33.370Z,85.20
2023-02-08T00:44:01.434Z,84.86
2023-02-08T00:46:30.452Z,83.92
2023-02-08T00:48:58.547Z,83.58
2023-02-08T00:51:27.359Z,83.41
2023-02-08T00:53:55.474Z,83.53
2023-02-08T00:56:24.278Z,84.03
2023-02-08T00:58:53.125Z,84.47
2023-02-08T01:01:21.206Z,85.45
2023-02-08T01:03:49.331Z,85.66
2023-02-08T01:06:19.647Z,86.82
2023-02-08T01:08:48.331Z,87.38
2023-02-08T01:11:22.442Z,88.12
2023-02-08T01:13:51.305Z,87.94
2023-02-08T01:16:21.470Z,88.01
2023-02-08T01:18:51.383Z,87.54
2023-02-08T01:21:24.155Z,87.76
2023-02-08T01:23:52.844Z,87.91
2023-02-08T01:26:21.727Z,88.75
2023-02-08T01:28:50.182Z,89.17
2023-02-08T01:31:20.413Z,88.39
2023-02-08T01:33:48.900Z,88.20
2023-02-08T01:36:17.318Z,87.70
2023-02-08T01:38:46.839Z,87.97
2023-02-08T01:41:20.235Z,87.17
2023-02-08T01:44:13.962Z,86.49
2023-02-08T01:46:43.880Z,86.94
2023-02-08T01:49:15.571Z,87.16
2023-02-08T01:51:56.285Z,86.54
2023-02-08T01:54:25.089Z,85.70
2023-02-08T01:56:53.479Z,86.28
2023-02-08T01:59:26.604Z,86.41
2023-02-08T02:01:56.595Z,85.83
2023-02-08T02:04:24.878Z,85.62
2023-02-08T02:06:54.817Z,84.98
2023-02-08T02:09:44.150Z,85.16
2023-02-08T02:12:15.599Z,83.91
2023-02-08T02:14:44.066Z,85.48
2023-02-08T02:17:13.836Z,86.07
2023-02-08T02:19:48.880Z,85.02
2023-02-08T02:22:32.098Z,85.25
2023-02-08T02:25:18.778Z,87.02
2023-02-08T02:28:14.841Z,87.98
2023-02-08T02:30:59.376Z,88.22
2023-02-08T02:33:34.295Z,89.40
2023-02-08T02:36:11.796Z,89.65
2023-02-08T02:39:23.908Z,89.45
2023-02-08T02:42:20.333Z,88.95
2023-02-08T02:45:03.463Z,88.94
2023-02-08T02:47:52.985Z,89.77
2023-02-08T02:50:27.641Z,89.93
2023-02-08T02:53:04.883Z,89.33
2023-02-08T02:55:34.290Z,88.93
2023-02-08T02:58:02.826Z,88.36
2023-02-08T03:00:31.146Z,87.94
2023-02-08T03:02:59.311Z,87.91
2023-02-08T03:05:28.411Z,87.84
2023-02-08T03:08:16.724Z,85.63
2023-02-08T03:10:58.394Z,86.25
2023-02-08T03:14:16.843Z,87.40
2023-02-08T03:17:08.752Z,88.15
2023-02-08T03:19:39.812Z,88.33
2023-02-08T03:22:36.299Z,88.82
2023-02-08T03:25:22.484Z,89.69
2023-02-08T03:28:00.955Z,89.78
2023-02-08T03:30:46.041Z,89.30
2023-02-08T03:33:21.665Z,88.42
2023-02-08T03:36:08.558Z,87.19
2023-02-08T03:38:39.761Z,86.82
2023-02-08T03:41:10.295Z,87.42
2023-02-08T03:43:46.715Z,87.72
2023-02-08T03:46:21.969Z,88.67
2023-02-08T03:48:54.414Z,89.48
2023-02-08T03:51:22.571Z,90.21
2023-02-08T03:53:50.749Z,90.02
2023-02-08T03:56:25.800Z,89.06
2023-02-08T03:59:00.130Z,89.22
2023-02-08T04:01:34.022Z,90.00
2023-02-08T04:04:02.385Z,90.11
2023-02-08T04:06:30.770Z,90.70
2023-02-08T04:08:58.960Z,91.16
2023-02-08T04:11:28.906Z,91.97
2023-02-08T04:13:58.065Z,92.34
2023-02-08T04:16:26.170Z,91.94
2023-02-08T04:18:54.195Z,91.97
2023-02-08T04:21:22.258Z,91.60
2023-02-08T04:23:50.414Z,91.15
2023-02-08T04:26:18.684Z,91.52
2023-02-08T04:28:46.765Z,91.67
2023-02-08T04:31:15.236Z,90.69
2023-02-08T04:33:43.376Z,90.78
2023-02-08T04:36:11.589Z,91.23
2023-02-08T04:38:40.298Z,91.85
2023-02-08T04:41:08.413Z,90.61
2023-02-08T04:43:37.066Z,90.30
2023-02-08T04:46:05.365Z,90.07
2023-02-08T04:48:33.591Z,90.55
2023-02-08T04:51:02.105Z,89.69
2023-02-08T04:53:31.717Z,90.41
2023-02-08T04:55:59.891Z,90.89
2023-02-08T04:58:27.981Z,91.05
2023-02-08T05:00:56.525Z,90.58
2023-02-08T05:03:25.378Z,91.42
2023-02-08T05:05:58.390Z,91.46
2023-02-08T05:08:26.685Z,90.80
2023-02-08T05:10:55.920Z,90.32
2023-02-08T05:13:24.697Z,90.55
2023-02-08T05:15:53.410Z,91.16
2023-02-08T05:18:22.314Z,91.70
2023-02-08T05:20:57.665Z,90.46
2023-02-08T05:23:26.481Z,90.55
2023-02-08T05:25:55.217Z,91.24
2023-02-08T05:28:24.115Z,90.77
2023-02-08T05:30:52.312Z,90.71
2023-02-08T05:33:20.472Z,90.50
2023-02-08T05:35:48.826Z,90.75
2023-02-08T05:38:16.897Z,90.68
2023-02-08T05:40:45.267Z,91.69
2023-02-08T05:43:13.371Z,92.16
2023-02-08T05:45:42.168Z,91.61
2023-02-08T05:48:10.275Z,90.99
2023-02-08T05:50:38.904Z,91.42
2023-02-08T05:53:11.328Z,91.23
2023-02-08T05:55:39.493Z,91.23
2023-02-08T05:58:07.515Z,91.10
2023-02-08T06:00:35.984Z,91.03
2023-02-08T06:03:04.308Z,91.44
2023-02-08T06:05:32.626Z,91.55
2023-02-08T06:08:00.788Z,92.05
2023-02-08T06:10:28.874Z,91.32
2023-02-08T06:12:56.981Z,91.62
2023-02-08T06:15:25.343Z,91.58
2023-02-08T06:17:53.653Z,90.82
2023-02-08T06:20:21.829Z,89.86
2023-02-08T06:22:50.796Z,90.31
2023-02-08T06:25:18.943Z,88.82
2023-02-08T06:27:47.534Z,86.99
2023-02-08T06:30:15.722Z,87.01
2023-02-08T06:32:43.871Z,87.48
2023-02-08T06:35:12.022Z,87.03
2023-02-08T06:37:40.389Z,85.56
2023-02-08T06:40:09.089Z,84.66
2023-02-08T06:42:37.977Z,84.30
2023-02-08T06:45:10.585Z,84.40
2023-02-08T06:47:39.756Z,84.59
2023-02-08T06:50:08.556Z,85.52
2023-02-08T06:52:36.838Z,87.63
2023-02-08T06:55:05.259Z,89.04
2023-02-08T06:57:33.959Z,88.32
2023-02-08T07:00:02.570Z,86.97
2023-02-08T07:02:31.256Z,86.94
2023-02-08T07:04:59.632Z,86.31
2023-02-08T07:07:27.939Z,86.56
2023-02-08T07:09:56.085Z,86.46
2023-02-08T07:12:24.246Z,85.74
2023-02-08T07:14:52.558Z,85.61
2023-02-08T07:17:20.621Z,85.10
2023-02-08T07:19:50.853Z,85.19
2023-02-08T07:22:18.957Z,84.92
2023-02-08T07:24:47.133Z,84.98
2023-02-08T07:27:15.854Z,85.55
2023-02-08T07:29:44.401Z,85.47
2023-02-08T07:32:13.560Z,85.46
2023-02-08T07:34:42.366Z,85.41
2023-02-08T07:37:10.493Z,85.51
2023-02-08T07:39:38.988Z,85.64
2023-02-08T07:42:08.776Z,85.14
2023-02-08T07:44:40.959Z,84.26
2023-02-08T07:47:09.496Z,84.58
2023-02-08T07:49:38.037Z,84.39
2023-02-08T07:52:06.095Z,83.99
2023-02-08T07:54:35.055Z,83.45
2023-02-08T07:57:03.818Z,82.99
2023-02-08T07:59:32.243Z,83.06
2023-02-08T08:02:02.074Z,82.78
2023-02-08T08:04:30.574Z,83.04
2023-02-08T08:06:59.059Z,83.12
2023-02-08T08:09:28.194Z,82.37
2023-02-08T08:11:56.342Z,82.16
2023-02-08T08:14:25.294Z,82.16
2023-02-08T08:16:53.367Z,81.29
2023-02-08T08:19:24.526Z,81.03
2023-02-08T08:21:52.672Z,80.91
2023-02-08T08:24:20.878Z,80.94
2023-02-08T08:26:49.763Z,80.57
2023-02-08T08:29:18.328Z,80.18
2023-02-08T08:31:46.663Z,80.38
2023-02-08T08:34:15.025Z,80.56
2023-02-08T08:36:43.151Z,80.44
2023-02-08T08:39:11.439Z,78.94
2023-02-08T08:41:39.901Z,78.96
2023-02-08T08:44:08.056Z,78.84
2023-02-08T08:46:36.272Z,79.05
2023-02-08T08:49:04.569Z,79.15
2023-02-08T08:51:35.537Z,79.19
2023-02-08T08:54:04.754Z,79.57
2023-02-08T08:56:33.016Z,78.90
2023-02-08T08:59:01.096Z,79.09
2023-02-08T09:01:31.418Z,79.26
2023-02-08T09:04:00.684Z,78.87
2023-02-08T09:06:29.111Z,78.67
2023-02-08T09:09:01.743Z,77.94
2023-02-08T09:11:30.045Z,77.88
2023-02-08T09:13:58.845Z,78.03
2023-02-08T09:16:27.023Z,78.28
2023-02-08T09:18:55.171Z,77.94
2023-02-08T09:21:25.461Z,77.56
2023-02-08T09:23:53.720Z,76.32
2023-02-08T09:26:23.424Z,75.63
2023-02-08T09:28:51.638Z,74.72
2023-02-08T09:31:27.648Z,73.58
2023-02-08T09:34:00.262Z,73.33
2023-02-08T09:36:30.366Z,73.20
2023-02-08T09:39:01.812Z,72.89
2023-02-08T09:42:03.850Z,72.96
2023-02-08T09:44:47.148Z,73.17
2023-02-08T09:47:23.118Z,73.35
2023-02-08T09:50:12.354Z,73.64
2023-02-08T09:52:56.576Z,74.15
2023-02-08T09:55:30.152Z,73.86
2023-02-08T09:57:58.449Z,73.14
2023-02-08T10:00:39.488Z,72.48
2023-02-08T10:03:19.331Z,71.92
2023-02-08T10:05:48.211Z,71.96
2023-02-08T10:08:16.336Z,71.24
2023-02-08T10:10:55.465Z,70.75
2023-02-08T10:13:52.409Z,70.45
2023-02-08T10:16:20.736Z,70.91
2023-02-08T10:18:58.510Z,71.31
2023-02-08T10:21:30.546Z,70.26
2023-02-08T10:24:08.810Z,70.64
2023-02-08T10:26:48.117Z,70.50
2023-02-08T10:29:29.409Z,68.46
2023-02-08T10:32:36.306Z,68.81
2023-02-08T10:35:07.569Z,69.48
2023-02-08T10:37:38.806Z,69.07
2023-02-08T10:40:18.870Z,68.86
2023-02-08T10:43:25.619Z,67.96
2023-02-08T10:46:05.940Z,68.64
2023-02-08T10:48:36.972Z,68.62
2023-02-08T10:51:05.179Z,68.10
2023-02-08T10:53:33.798Z,67.69
2023-02-08T10:56:01.906Z,67.17
2023-02-08T10:58:33.950Z,67.07
2023-02-08T11:01:02.174Z,67.41
2023-02-08T11:03:30.520Z,67.52
2023-02-08T11:05:58.839Z,67.52
2023-02-08T11:08:28.879Z,66.72
2023-02-08T11:11:00.405Z,67.46
2023-02-08T11:13:37.408Z,67.92
2023-02-08T11:16:26.469Z,67.25
2023-02-08T11:18:57.044Z,67.27
2023-02-08T11:21:33.759Z,66.68
2023-02-08T11:24:23.978Z,66.11
2023-02-08T11:26:52.129Z,66.44
2023-02-08T11:29:26.449Z,66.22
2023-02-08T11:31:59.192Z,65.72
2023-02-08T11:34:32.924Z,66.29
2023-02-08T11:37:02.992Z,65.32
2023-02-08T11:39:51.737Z,65.53
2023-02-08T11:42:26.631Z,65.48
2023-02-08T11:44:55.690Z,64.74
2023-02-08T11:47:25.765Z,64.62
2023-02-08T11:49:55.382Z,64.28
2023-02-08T11:52:25.767Z,64.87
2023-02-08T11:54:55.069Z,65.27
2023-02-08T11:57:27.988Z,65.40
2023-02-08T12:00:20.266Z,65.95
2023-02-08T12:02:50.864Z,65.80
2023-02-08T12:05:24.403Z,65.11
2023-02-08T12:08:08.050Z,64.48
2023-02-08T12:10:45.660Z,65.00
2023-02-08T12:13:38.884Z,64.41
2023-02-08T12:16:20.306Z,64.98
2023-02-08T12:19:04.983Z,64.47
2023-02-08T12:21:44.062Z,65.03
2023-02-08T12:24:24.449Z,64.67
2023-02-08T12:27:08.153Z,64.94
2023-02-08T12:29:47.252Z,63.08
2023-02-08T12:32:49.832Z,63.28
2023-02-08T12:35:54.050Z,63.53
2023-02-08T12:38:46.721Z,63.64
2023-02-08T12:41:39.193Z,62.08
2023-02-08T12:44:27.484Z,62.41
2023-02-08T12:47:13.012Z,62.24
2023-02-08T12:49:56.052Z,62.09
2023-02-08T12:52:41.702Z,61.78
2023-02-08T12:55:22.990Z,61.93
2023-02-08T12:57:53.554Z,61.79
2023-02-08T13:00:29.550Z,62.08
2023-02-08T13:03:25.045Z,61.66
2023-02-08T13:06:02.159Z,62.03
2023-02-08T13:08:50.635Z,62.28
2023-02-08T13:11:21.877Z,62.35
2023-02-08T13:13:57.942Z,62.62
2023-02-08T13:16:30.136Z,63.01
2023-02-08T13:19:21.787Z,63.86
2023-02-08T13:21:50.724Z,63.82
2023-02-08T13:24:39.104Z,63.68
2023-02-08T13:27:08.725Z,63.25
2023-02-08T13:29:37.499Z,63.32
2023-02-08T13:32:17.560Z,63.48
2023-02-08T13:34:49.304Z,63.77
2023-02-08T13:37:27.293Z,63.62
2023-02-08T13:40:30.234Z,63.69
2023-02-08T13:43:01.337Z,64.08
2023-02-08T13:45:29.455Z,64.31
2023-02-08T13:47:59.856Z,64.53
2023-02-08T13:50:33.646Z,64.48
2023-02-08T13:53:02.892Z,64.55
2023-02-08T13:55:35.926Z,64.15
2023-02-08T13:58:16.166Z,63.72
2023-02-08T14:01:01.176Z,63.87
2023-02-08T14:03:33.280Z,63.31
2023-02-08T14:06:19.251Z,63.97
2023-02-08T14:08:56.542Z,63.75
2023-02-08T14:11:42.995Z,63.84
2023-02-08T14:14:23.373Z,64.09
2023-02-08T14:17:09.725Z,64.25
2023-02-08T14:19:42.675Z,64.47
2023-02-08T14:22:13.948Z,64.49
2023-02-08T14:24:50.439Z,64.50
2023-02-08T14:27:22.778Z,64.96
2023-02-08T14:30:03.065Z,65.09
2023-02-08T14:32:33.781Z,65.57
2023-02-08T14:35:15.821Z,65.58
2023-02-08T14:37:44.517Z,65.68
2023-02-08T14:40:24.491Z,65.94
2023-02-08T14:46:37.785Z,66.44
2023-02-08T14:49:13.863Z,66.09
2023-02-08T14:51:50.494Z,66.51
2023-02-08T14:54:25.916Z,66.93
2023-02-08T14:56:57.668Z,67.07
2023-02-08T14:59:27.660Z,67.35
2023-02-08T15:02:11.544Z,67.40
2023-02-08T15:04:44.345Z,67.61
2023-02-08T15:07:44.760Z,67.72
2023-02-08T15:10:14.231Z,67.99
2023-02-08T15:12:44.418Z,68.06
2023-02-08T15:15:28.786Z,68.09
2023-02-08T15:17:57.233Z,68.06
2023-02-08T15:20:31.455Z,68.22
2023-02-08T15:23:19.592Z,68.49
2023-02-08T15:26:04.527Z,68.83
2023-02-08T15:28:35.483Z,69.38
2023-02-08T15:31:10.316Z,69.67
2023-02-08T15:33:38.934Z,69.87
2023-02-08T15:36:08.902Z,70.09
2023-02-08T15:38:38.663Z,70.45
2023-02-08T15:41:10.371Z,70.78
2023-02-08T15:43:39.807Z,71.27
2023-02-08T15:46:21.374Z,71.46
2023-02-08T15:48:52.772Z,71.57
2023-02-08T15:51:23.206Z,71.74
2023-02-08T15:53:52.856Z,71.99
2023-02-08T15:56:37.181Z,72.51
2023-02-08T15:59:06.634Z,73.02
2023-02-08T16:01:35.164Z,73.11
2023-02-08T16:04:06.251Z,73.55
2023-02-08T16:06:37.663Z,73.67
2023-02-08T16:09:07.020Z,73.88
2023-02-08T16:11:36.018Z,74.06
2023-02-08T16:14:05.659Z,74.34
2023-02-08T16:16:40.403Z,74.50
2023-02-08T16:19:29.053Z,74.79
2023-02-08T16:22:21.595Z,74.97
2023-02-08T16:24:51.111Z,75.15
2023-02-08T16:27:30.115Z,75.23
2023-02-08T16:29:59.483Z,76.49
2023-02-08T16:32:29.814Z,76.50
2023-02-08T16:34:58.058Z,75.95
2023-02-08T16:37:33.193Z,75.54
2023-02-08T16:40:03.155Z,75.38
2023-02-08T16:42:33.992Z,75.33
2023-02-08T16:45:12.907Z,75.33
2023-02-08T16:47:52.170Z,75.76
2023-02-08T16:50:28.011Z,78.02
2023-02-08T16:52:59.721Z,78.85
2023-02-08T16:55:31.387Z,78.87
2023-02-08T16:57:59.838Z,79.44
2023-02-08T17:00:30.112Z,80.61
2023-02-08T17:02:59.235Z,81.88
2023-02-08T17:05:32.055Z,81.51
2023-02-08T17:08:00.817Z,80.72
2023-02-08T17:10:32.448Z,80.42
2023-02-08T17:13:19.383Z,80.49
2023-02-08T17:15:49.947Z,80.98
2023-02-08T17:18:18.523Z,80.50
2023-02-08T17:20:47.009Z,79.98
2023-02-08T17:23:16.189Z,80.56
2023-02-08T17:25:44.775Z,80.34
2023-02-08T17:28:51.252Z,81.68
2023-02-08T17:32:13.631Z,82.01
2023-02-08T17:38:19.674Z,82.04
2023-02-08T17:40:47.405Z,81.70
2023-02-08T17:43:14.437Z,81.37
2023-02-08T17:45:45.511Z,81.06
2023-02-08T17:48:12.920Z,81.40
2023-02-08T17:51:21.617Z,81.14
2023-02-08T17:53:49.483Z,82.28
2023-02-08T17:56:21.579Z,83.51
2023-02-08T17:58:51.436Z,83.86
2023-02-08T18:01:24.469Z,84.04
2023-02-08T18:03:52.627Z,84.14
2023-02-08T18:06:21.247Z,85.25
2023-02-08T18:08:48.880Z,84.98
2023-02-08T18:11:20.165Z,84.81
2023-02-08T18:13:48.200Z,83.38
2023-02-08T18:16:23.206Z,83.92
2023-02-08T18:18:50.427Z,85.57
2023-02-08T18:21:21.569Z,86.49
2023-02-08T18:23:49.647Z,86.77
2023-02-08T18:26:19.920Z,86.54
2023-02-08T18:28:50.737Z,86.79
2023-02-08T18:31:19.631Z,86.32
2023-02-08T18:33:47.852Z,85.25
2023-02-08T18:36:15.670Z,84.86
2023-02-08T18:39:04.865Z,85.87
2023-02-08T18:41:32.233Z,86.82
2023-02-08T18:43:59.936Z,87.56
2023-02-08T18:46:29.875Z,87.53
2023-02-08T18:48:59.763Z,87.26
2023-02-08T18:51:27.152Z,87.11
2023-02-08T18:53:56.922Z,87.26
2023-02-08T18:56:25.372Z,87.43
2023-02-08T18:59:12.501Z,87.87
2023-02-08T19:01:41.526Z,87.44
2023-02-08T19:04:09.300Z,86.80
2023-02-08T19:06:36.400Z,87.99
2023-02-08T19:09:06.941Z,87.82
2023-02-08T19:11:35.649Z,87.94
2023-02-08T19:14:08.052Z,86.90
2023-02-08T19:16:36.144Z,87.15
2023-02-08T19:19:04.205Z,87.24
2023-02-08T19:21:32.379Z,87.35
2023-02-08T19:24:02.405Z,87.28
2023-02-08T19:26:36.357Z,87.02
2023-02-08T19:29:03.543Z,86.85
2023-02-08T19:31:30.803Z,86.13
2023-02-08T19:34:03.271Z,86.83
2023-02-08T19:36:37.240Z,86.15
2023-02-08T19:39:05.072Z,85.77
2023-02-08T19:41:37.719Z,87.03
2023-02-08T19:44:06.377Z,88.00
2023-02-08T19:46:34.622Z,88.19
2023-02-08T19:49:02.636Z,88.26
2023-02-08T19:51:32.421Z,87.19
2023-02-08T19:54:01.593Z,88.00
2023-02-08T19:56:33.671Z,87.48
2023-02-08T19:59:03.475Z,87.29
2023-02-08T20:01:32.577Z,87.26
2023-02-08T20:03:59.966Z,86.79
2023-02-08T20:06:28.839Z,86.39
2023-02-08T20:08:55.683Z,87.22
2023-02-08T20:11:24.505Z,86.74
2023-02-08T20:13:52.204Z,86.76
2023-02-08T20:16:19.927Z,86.49
2023-02-08T20:18:47.405Z,86.40
2023-02-08T20:21:16.222Z,86.20
2023-02-08T20:23:43.212Z,86.47
2023-02-08T20:26:19.201Z,87.26
2023-02-08T20:28:54.102Z,87.54
2023-02-08T20:31:27.137Z,87.19
2023-02-08T20:33:55.322Z,87.09
2023-02-08T20:39:48.332Z,87.39
2023-02-08T20:42:16.562Z,88.05
2023-02-08T20:44:44.698Z,87.85
2023-02-08T20:47:14.261Z,86.58
2023-02-08T20:49:43.680Z,85.62
2023-02-08T20:52:12.306Z,86.22
2023-02-08T20:54:42.486Z,87.00
2023-02-08T20:57:18.407Z,86.94
2023-02-08T20:59:50.138Z,87.05
2023-02-08T21:02:22.545Z,87.13
2023-02-08T21:04:50.721Z,85.65
2023-02-08T21:07:18.962Z,86.23
2023-02-08T21:09:47.497Z,88.53
2023-02-08T21:12:16.284Z,90.03
2023-02-08T21:14:45.001Z,90.50
2023-02-08T21:17:18.625Z,90.03
2023-02-08T21:19:47.844Z,89.87
2023-02-08T21:22:17.244Z,90.04
2023-02-08T21:24:45.661Z,89.77
2023-02-08T21:27:13.771Z,89.65
2023-02-08T21:29:41.970Z,89.86
2023-02-08T21:32:10.298Z,89.02
2023-02-08T21:34:39.875Z,88.98
2023-02-08T21:37:08.008Z,88.98
2023-02-08T21:39:36.499Z,89.13
2023-02-08T21:42:05.001Z,88.55
2023-02-08T21:44:35.299Z,88.07
2023-02-08T21:47:03.755Z,87.89
2023-02-08T21:49:50.942Z,87.66
2023-02-08T21:52:37.524Z,86.89
2023-02-08T21:55:06.404Z,86.67
2023-02-08T21:57:39.973Z,87.94
2023-02-08T22:00:10.418Z,88.78
2023-02-08T22:02:41.891Z,89.12
2023-02-08T22:05:28.547Z,88.61
2023-02-08T22:07:59.847Z,88.91
2023-02-08T22:10:29.337Z,89.21
2023-02-08T22:12:58.070Z,88.92
2023-02-08T22:15:27.977Z,88.72
2023-02-08T22:18:00.624Z,88.71
2023-02-08T22:20:30.055Z,88.68
2023-02-08T22:22:58.842Z,88.02
2023-02-08T22:25:27.720Z,88.21
2023-02-08T22:27:55.850Z,88.53
2023-02-08T22:30:25.650Z,88.26
2023-02-08T22:32:54.011Z,88.52
2023-02-08T22:35:22.877Z,88.51
2023-02-08T22:37:51.107Z,88.36
2023-02-08T22:40:19.444Z,87.55
2023-02-08T22:42:47.684Z,87.08
2023-02-08T22:45:15.873Z,87.65
2023-02-08T22:47:45.997Z,87.66
2023-02-08T22:50:14.749Z,88.06
2023-02-08T22:52:43.656Z,87.56
2023-02-08T22:55:14.060Z,88.44
2023-02-08T22:57:43.648Z,89.35
2023-02-08T23:00:14.254Z,90.25
2023-02-08T23:02:43.273Z,90.62
2023-02-08T23:05:11.458Z,90.65
2023-02-08T23:07:40.366Z,90.49
2023-02-08T23:10:11.500Z,90.83
2023-02-08T23:12:40.008Z,91.08
2023-02-08T23:15:10.551Z,90.83
2023-02-08T23:17:38.749Z,90.88
2023-02-08T23:20:07.424Z,91.09
2023-02-08T23:22:38.700Z,90.58
2023-02-08T23:25:07.146Z,90.03
2023-02-08T23:27:36.902Z,90.13
2023-02-08T23:30:07.854Z,89.56
2023-02-08T23:32:37.936Z,89.38
2023-02-08T23:35:08.427Z,89.70
2023-02-08T23:37:36.663Z,89.87
2023-02-08T23:40:05.260Z,88.77
2023-02-08T23:42:33.771Z,89.56
2023-02-08T23:45:02.744Z,89.34
2023-02-08T23:47:31.495Z,88.99
2023-02-08T23:49:59.550Z,88.92
2023-02-08T23:52:27.995Z,89.36
2023-02-08T23:54:56.228Z,89.12
2023-02-08T23:57:24.425Z,89.74
2023-02-08T23:59:52.513Z,89.84
